createdAt,value
2019-02-23T00:02:15.658Z,42.83
2019-02-23T00:04:44.320Z,43.33
2019-02-23T00:07:13.109Z,34.53
2019-02-23T00:09:42.001Z,38.00
2019-02-23T00:12:10.687Z,41.63
2019-02-23T00:14:39.598Z,34.83
2019-02-23T00:17:08.210Z,33.37
2019-02-23T00:19:37.168Z,39.03
2019-02-23T00:22:05.785Z,37.13
2019-02-23T00:24:34.460Z,39.90
2019-02-23T00:27:03.075Z,36.20
2019-02-23T00:29:32.011Z,38.20
2019-02-23T00:32:00.620Z,41.23
2019-02-23T00:34:29.250Z,34.77
2019-02-23T00:36:59.267Z,34.80
2019-02-23T00:39:27.958Z,34.47
2019-02-23T00:41:58.086Z,29.27
2019-02-23T00:44:27.087Z,30.73
2019-02-23T00:46:56.095Z,31.37
2019-02-23T00:49:35.781Z,30.27
2019-02-23T00:51:57.756Z,25.63
2019-02-23T00:54:26.321Z,31.80
2019-02-23T00:56:55.647Z,29.23
2019-02-23T00:59:24.289Z,25.70
2019-02-23T01:01:52.970Z,26.10
2019-02-23T01:04:21.553Z,29.37
2019-02-23T01:06:50.284Z,27.73
2019-02-23T01:09:18.894Z,27.20
2019-02-23T01:11:50.928Z,27.67
2019-02-23T01:14:19.484Z,24.10
2019-02-23T01:16:48.250Z,29.83
2019-02-23T01:19:16.939Z,27.00
2019-02-23T01:21:45.953Z,27.50
2019-02-23T01:24:14.912Z,24.17
2019-02-23T01:27:02.935Z,31.43
2019-02-23T01:29:31.733Z,28.40
2019-02-23T01:32:00.476Z,30.00
2019-02-23T01:34:29.224Z,27.93
2019-02-23T01:36:57.899Z,26.07
2019-02-23T01:39:26.578Z,24.77
2019-02-23T01:41:55.495Z,22.93
2019-02-23T01:44:24.166Z,26.23
2019-02-23T01:46:52.944Z,24.60
2019-02-23T01:49:21.550Z,26.30
2019-02-23T01:51:50.311Z,31.83
2019-02-23T01:54:18.988Z,29.70
2019-02-23T01:56:47.581Z,25.03
2019-02-23T01:59:17.627Z,23.50
2019-02-23T02:01:46.828Z,25.00
2019-02-23T02:04:15.940Z,22.10
2019-02-23T02:06:44.535Z,27.30
2019-02-23T02:09:13.381Z,31.20
2019-02-23T02:11:42.143Z,27.53
2019-02-23T02:14:10.827Z,26.47
2019-02-23T02:16:39.509Z,24.67
2019-02-23T02:19:08.407Z,25.33
2019-02-23T02:21:37.538Z,22.83
2019-02-23T02:24:06.185Z,24.53
2019-02-23T02:26:35.096Z,23.50
2019-02-23T02:29:03.748Z,24.87
2019-02-23T02:31:32.438Z,25.33
2019-02-23T02:34:08.803Z,28.67
2019-02-23T02:36:37.821Z,22.27
2019-02-23T02:39:08.714Z,20.20
2019-02-23T02:41:37.401Z,23.23
2019-02-23T02:44:06.098Z,20.37
2019-02-23T02:46:34.706Z,20.90
2019-02-23T02:49:03.469Z,22.67
2019-02-23T02:51:32.147Z,19.90
2019-02-23T02:54:00.835Z,21.90
2019-02-23T02:56:29.437Z,22.30
2019-02-23T02:58:58.029Z,22.03
2019-02-23T03:01:26.788Z,22.33
2019-02-23T03:03:55.804Z,21.67
2019-02-23T03:06:24.563Z,23.60
2019-02-23T03:08:53.297Z,24.53
2019-02-23T03:11:22.266Z,21.60
2019-02-23T03:13:51.009Z,25.03
2019-02-23T03:16:19.943Z,21.97
2019-02-23T03:18:48.530Z,21.30
2019-02-23T03:21:17.135Z,24.67
2019-02-23T03:23:45.718Z,18.83
2019-02-23T03:26:14.338Z,27.70
2019-02-23T03:28:43.035Z,25.37
2019-02-23T03:31:11.678Z,21.73
2019-02-23T03:33:40.259Z,28.03
2019-02-23T03:36:08.881Z,19.83
2019-02-23T03:38:37.561Z,25.43
2019-02-23T03:41:06.330Z,22.43
2019-02-23T03:43:35.137Z,24.00
2019-02-23T03:46:03.843Z,25.93
2019-02-23T03:48:33.020Z,27.00
2019-02-23T03:51:01.705Z,26.00
2019-02-23T03:53:30.728Z,28.60
2019-02-23T03:55:59.478Z,28.40
2019-02-23T03:58:28.160Z,24.83
2019-02-23T04:00:58.226Z,25.87
2019-02-23T04:03:26.909Z,26.17
2019-02-23T04:05:55.545Z,32.57
2019-02-23T04:08:24.277Z,26.57
2019-02-23T04:10:52.836Z,25.07
2019-02-23T04:13:21.836Z,25.57
2019-02-23T04:15:50.900Z,30.27
2019-02-23T04:18:19.584Z,26.53
2019-02-23T04:20:48.313Z,32.40
2019-02-23T04:23:17.365Z,28.63
2019-02-23T04:25:45.944Z,30.07
2019-02-23T04:28:14.732Z,30.10
2019-02-23T04:30:43.823Z,25.37
2019-02-23T04:33:12.940Z,32.33
2019-02-23T04:35:41.840Z,32.13
2019-02-23T04:38:10.491Z,28.47
2019-02-23T04:40:39.082Z,26.03
2019-02-23T04:43:07.701Z,25.40
2019-02-23T04:45:36.292Z,26.50
2019-02-23T04:48:04.929Z,31.70
2019-02-23T04:50:33.960Z,28.77
2019-02-23T04:53:02.746Z,29.77
2019-02-23T04:55:31.385Z,30.30
2019-02-23T04:57:59.981Z,29.47
2019-02-23T05:00:28.753Z,28.03
2019-02-23T05:02:57.421Z,29.43
2019-02-23T05:05:26.136Z,34.60
2019-02-23T05:07:54.713Z,31.07
2019-02-23T05:10:23.410Z,28.40
2019-02-23T05:12:52.119Z,29.03
2019-02-23T05:15:20.965Z,31.30
2019-02-23T05:17:49.558Z,29.90
2019-02-23T05:20:18.224Z,33.60
2019-02-23T05:22:46.823Z,29.17
2019-02-23T05:25:15.497Z,30.30
2019-02-23T05:27:44.121Z,34.20
2019-02-23T05:30:13.375Z,28.60
2019-02-23T05:32:42.425Z,34.53
2019-02-23T05:35:12.456Z,32.30
2019-02-23T05:37:41.067Z,29.87
2019-02-23T05:40:13.745Z,32.00
2019-02-23T05:42:42.425Z,35.90
2019-02-23T05:45:11.682Z,29.77
2019-02-23T05:47:40.313Z,31.10
2019-02-23T05:50:10.058Z,31.80
2019-02-23T05:52:38.644Z,31.30
2019-02-23T05:55:07.588Z,34.20
2019-02-23T05:57:36.224Z,30.80
2019-02-23T06:00:07.708Z,29.83
2019-02-23T06:02:36.357Z,30.37
2019-02-23T06:05:06.439Z,33.73
2019-02-23T06:07:35.211Z,31.47
2019-02-23T06:10:05.462Z,32.77
2019-02-23T06:12:34.119Z,31.07
2019-02-23T06:15:03.050Z,31.30
2019-02-23T06:17:31.590Z,31.40
2019-02-23T06:20:00.594Z,32.30
2019-02-23T06:22:29.677Z,32.50
2019-02-23T06:24:58.282Z,30.93
2019-02-23T06:27:27.251Z,30.67
2019-02-23T06:29:55.929Z,30.10
2019-02-23T06:32:24.614Z,32.40
2019-02-23T06:34:53.712Z,31.07
2019-02-23T06:37:22.293Z,29.37
2019-02-23T06:39:50.977Z,30.00
2019-02-23T06:42:19.616Z,30.70
2019-02-23T06:44:48.210Z,32.13
2019-02-23T06:47:17.027Z,28.73
2019-02-23T06:49:45.617Z,32.60
2019-02-23T06:52:14.226Z,31.73
2019-02-23T06:54:42.811Z,31.00
2019-02-23T06:57:11.454Z,31.77
2019-02-23T06:59:40.040Z,29.63
2019-02-23T07:02:08.831Z,29.63
2019-02-23T07:04:37.487Z,26.70
2019-02-23T07:07:06.200Z,34.20
2019-02-23T07:09:34.885Z,28.83
2019-02-23T07:12:03.666Z,25.70
2019-02-23T07:14:33.068Z,26.00
2019-02-23T07:17:01.745Z,24.40
2019-02-23T07:19:30.330Z,25.40
2019-02-23T07:21:59.024Z,27.93
2019-02-23T07:24:27.654Z,25.50
2019-02-23T07:26:56.260Z,26.07
2019-02-23T07:29:25.201Z,23.03
2019-02-23T07:31:53.805Z,23.37
2019-02-23T07:34:22.456Z,26.53
2019-02-23T07:36:51.128Z,21.67
2019-02-23T07:39:19.746Z,21.00
2019-02-23T07:41:48.492Z,22.67
2019-02-23T07:44:17.127Z,23.17
2019-02-23T07:46:45.715Z,20.80
2019-02-23T07:49:14.308Z,20.03
2019-02-23T07:51:42.923Z,20.47
2019-02-23T07:54:11.510Z,19.43
2019-02-23T07:56:40.529Z,20.53
2019-02-23T07:59:09.113Z,23.20
2019-02-23T08:01:38.062Z,22.60
2019-02-23T08:04:06.650Z,19.70
2019-02-23T08:06:35.229Z,19.57
2019-02-23T08:09:05.504Z,21.27
2019-02-23T08:11:34.190Z,20.90
2019-02-23T08:14:02.878Z,18.97
2019-02-23T08:16:31.509Z,21.33
2019-02-23T08:19:00.549Z,18.53
2019-02-23T08:21:29.519Z,20.77
2019-02-23T08:23:58.584Z,17.90
2019-02-23T08:26:27.269Z,16.67
2019-02-23T08:28:55.887Z,15.50
2019-02-23T08:31:24.468Z,20.80
2019-02-23T08:33:53.146Z,19.73
2019-02-23T08:36:23.716Z,20.27
2019-02-23T08:41:19.915Z,18.93
2019-02-23T08:43:48.572Z,16.50
2019-02-23T08:46:17.161Z,17.60
2019-02-23T08:48:45.843Z,18.50
2019-02-23T08:51:14.881Z,17.27
2019-02-23T08:53:43.464Z,15.87
2019-02-23T08:56:12.510Z,19.47
2019-02-23T08:58:41.120Z,17.23
2019-02-23T09:01:09.843Z,16.43
2019-02-23T09:03:38.913Z,15.23
2019-02-23T09:06:07.554Z,15.70
2019-02-23T09:08:36.198Z,16.47
2019-02-23T09:11:04.857Z,16.13
2019-02-23T09:13:33.478Z,16.97
2019-02-23T09:16:02.529Z,15.50
2019-02-23T09:18:31.129Z,14.50
2019-02-23T09:21:00.094Z,19.23
2019-02-23T09:33:23.007Z,16.47
2019-02-23T09:35:52.075Z,16.47
2019-02-23T09:38:20.756Z,15.23
2019-02-23T09:40:49.936Z,15.40
2019-02-23T09:43:18.686Z,15.60
2019-02-23T09:45:47.320Z,17.63
2019-02-23T09:48:15.938Z,15.40
2019-02-23T09:50:44.561Z,15.00
2019-02-23T09:53:13.319Z,17.10
2019-02-23T09:55:41.918Z,15.53
2019-02-23T09:58:10.584Z,16.50
2019-02-23T10:00:39.582Z,18.57
2019-02-23T10:03:08.631Z,17.80
2019-02-23T10:05:38.203Z,21.43
2019-02-23T10:08:07.069Z,21.87
2019-02-23T10:10:35.952Z,24.27
2019-02-23T10:13:04.630Z,18.83
2019-02-23T10:15:33.582Z,21.10
2019-02-23T10:18:02.215Z,16.27
2019-02-23T10:20:30.848Z,18.47
2019-02-23T10:22:59.531Z,21.30
2019-02-23T10:25:28.227Z,18.40
2019-02-23T10:27:59.191Z,16.80
2019-02-23T10:30:27.781Z,17.07
2019-02-23T10:32:56.649Z,18.30
2019-02-23T10:35:25.389Z,19.00
2019-02-23T10:37:54.168Z,17.17
2019-02-23T10:40:22.761Z,18.97
2019-02-23T10:42:51.548Z,17.70
2019-02-23T10:45:20.605Z,21.57
2019-02-23T10:47:50.346Z,21.67
2019-02-23T10:50:19.055Z,20.90
2019-02-23T10:52:47.636Z,21.27
2019-02-23T10:55:16.472Z,25.13
2019-02-23T10:57:45.226Z,26.23
2019-02-23T11:00:38.025Z,21.17
2019-02-23T11:03:06.753Z,21.60
2019-02-23T11:05:35.577Z,24.30
2019-02-23T11:08:04.858Z,23.93
2019-02-23T11:10:33.593Z,21.93
2019-02-23T11:13:02.242Z,24.30
2019-02-23T11:15:30.986Z,21.13
2019-02-23T11:18:00.127Z,21.83
2019-02-23T11:20:29.490Z,18.67
2019-02-23T11:22:58.215Z,20.60
2019-02-23T11:25:27.411Z,24.10
2019-02-23T11:27:56.389Z,18.40
2019-02-23T11:30:25.185Z,17.80
2019-02-23T11:32:53.799Z,20.50
2019-02-23T11:35:22.610Z,21.90
2019-02-23T11:37:51.275Z,21.10
2019-02-23T11:40:19.867Z,16.10
2019-02-23T11:42:49.178Z,18.77
2019-02-23T11:45:19.518Z,19.43
2019-02-23T11:47:48.117Z,18.60
2019-02-23T11:50:16.809Z,18.57
2019-02-23T11:52:45.888Z,19.50
2019-02-23T11:55:14.648Z,18.70
2019-02-23T11:57:43.335Z,19.80
2019-02-23T12:00:15.725Z,20.77
2019-02-23T12:02:51.966Z,16.77
2019-02-23T12:05:14.857Z,18.80
2019-02-23T12:07:43.395Z,16.33
2019-02-23T12:10:14.223Z,18.87
2019-02-23T12:12:42.916Z,18.90
2019-02-23T12:15:11.649Z,15.70
2019-02-23T12:17:40.259Z,15.20
2019-02-23T12:20:10.500Z,17.07
2019-02-23T12:22:39.233Z,15.90
2019-02-23T12:25:08.895Z,17.70
2019-02-23T12:27:37.513Z,17.50
2019-02-23T12:30:08.743Z,19.80
2019-02-23T12:32:37.553Z,17.10
2019-02-23T12:35:08.841Z,15.50
2019-02-23T12:37:37.773Z,16.13
2019-02-23T12:40:07.608Z,15.70
2019-02-23T12:42:36.574Z,15.90
2019-02-23T12:45:07.608Z,16.87
2019-02-23T12:47:36.317Z,13.93
2019-02-23T12:50:07.790Z,18.30
2019-02-23T12:52:37.537Z,19.77
2019-02-23T12:55:08.533Z,16.93
2019-02-23T12:57:39.145Z,16.53
2019-02-23T13:00:13.273Z,19.73
2019-02-23T13:02:41.957Z,19.80
2019-02-23T13:05:11.033Z,16.40
2019-02-23T13:07:40.005Z,13.73
2019-02-23T13:10:11.434Z,15.93
2019-02-23T13:13:07.703Z,16.20
2019-02-23T13:15:51.383Z,17.73
2019-02-23T13:18:29.009Z,15.17
2019-02-23T13:21:00.658Z,16.70
2019-02-23T13:23:38.110Z,13.70
2019-02-23T13:26:20.280Z,13.60
2019-02-23T13:28:57.645Z,12.90
2019-02-23T13:31:46.070Z,11.87
2019-02-23T13:34:23.884Z,13.73
2019-02-23T13:37:07.713Z,14.90
2019-02-23T13:39:41.249Z,12.73
2019-02-23T13:42:32.493Z,11.43
2019-02-23T13:45:29.830Z,10.77
2019-02-23T13:48:07.429Z,14.53
2019-02-23T13:51:01.804Z,10.33
2019-02-23T13:53:55.322Z,13.70
2019-02-23T13:56:32.858Z,11.47
2019-02-23T13:59:34.716Z,17.13
2019-02-23T14:02:23.013Z,11.40
2019-02-23T14:05:00.654Z,11.53
2019-02-23T14:07:43.969Z,12.40
2019-02-23T14:10:39.818Z,13.13
2019-02-23T14:13:20.468Z,12.03
2019-02-23T14:15:54.768Z,15.30
2019-02-23T14:18:38.679Z,10.47
2019-02-23T14:21:28.693Z,12.00
2019-02-23T14:24:06.677Z,12.03
2019-02-23T14:27:01.264Z,10.83
2019-02-23T14:29:45.338Z,11.80
2019-02-23T14:32:22.391Z,10.00
2019-02-23T14:35:16.721Z,10.47
2019-02-23T14:37:54.912Z,8.37
2019-02-23T14:40:33.139Z,11.70
2019-02-23T14:43:04.921Z,10.30
2019-02-23T14:45:48.551Z,7.93
2019-02-23T14:48:35.539Z,9.57
2019-02-23T14:51:13.236Z,11.37
2019-02-23T14:53:44.974Z,8.13
2019-02-23T14:56:16.630Z,14.70
2019-02-23T14:59:03.736Z,10.73
2019-02-23T15:01:38.182Z,10.40
2019-02-23T15:04:24.847Z,11.13
2019-02-23T15:07:13.400Z,12.47
2019-02-23T15:10:04.938Z,9.30
2019-02-23T15:12:36.602Z,10.10
2019-02-23T15:15:20.661Z,12.17
2019-02-23T15:17:57.800Z,9.63
2019-02-23T15:20:44.916Z,7.57
2019-02-23T15:23:22.379Z,7.10
2019-02-23T15:26:06.394Z,7.40
2019-02-23T15:28:50.180Z,8.20
2019-02-23T15:31:24.656Z,9.67
2019-02-23T15:34:29.645Z,10.73
2019-02-23T15:37:10.425Z,7.23
2019-02-23T15:39:54.264Z,8.73
2019-02-23T15:42:26.274Z,8.40
2019-02-23T15:45:19.147Z,8.73
2019-02-23T15:48:10.485Z,8.40
2019-02-23T15:50:39.683Z,9.43
2019-02-23T15:53:08.806Z,10.33
2019-02-23T15:55:37.465Z,10.20
2019-02-23T15:58:06.655Z,10.70
2019-02-23T16:00:35.995Z,9.47
2019-02-23T16:03:04.623Z,11.20
2019-02-23T16:05:33.465Z,8.10
2019-02-23T16:08:02.457Z,10.17
2019-02-23T16:10:31.208Z,9.50
2019-02-23T16:13:00.235Z,11.07
2019-02-23T16:15:29.226Z,18.40
2019-02-23T16:17:57.884Z,11.40
2019-02-23T16:20:26.654Z,8.73
2019-02-23T16:22:55.290Z,13.43
2019-02-23T16:25:24.743Z,11.00
2019-02-23T16:27:53.775Z,11.40
2019-02-23T16:30:22.721Z,10.27
2019-02-23T16:32:53.095Z,9.97
2019-02-23T16:35:22.649Z,8.40
2019-02-23T16:37:51.789Z,10.37
2019-02-23T16:40:21.524Z,10.37
2019-02-23T16:42:50.183Z,10.40
2019-02-23T16:45:20.518Z,10.03
2019-02-23T16:47:49.355Z,9.63
2019-02-23T16:50:18.180Z,11.50
2019-02-23T16:52:46.723Z,10.00
2019-02-23T16:55:15.412Z,10.50
2019-02-23T16:57:44.108Z,13.00
2019-02-23T17:00:12.952Z,17.10
2019-02-23T17:02:41.587Z,9.53
2019-02-23T17:05:10.283Z,10.97
2019-02-23T17:07:38.905Z,10.93
2019-02-23T17:10:08.359Z,13.53
2019-02-23T17:12:37.511Z,9.53
2019-02-23T17:15:10.459Z,10.47
2019-02-23T17:17:37.767Z,11.43
2019-02-23T17:20:06.649Z,11.37
2019-02-23T17:22:35.482Z,12.77
2019-02-23T17:25:05.248Z,13.63
2019-02-23T17:27:36.459Z,12.50
2019-02-23T17:30:04.638Z,12.83
2019-02-23T17:32:33.688Z,13.63
2019-02-23T17:35:02.563Z,12.33
2019-02-23T17:37:31.568Z,12.50
2019-02-23T17:40:00.674Z,17.80
2019-02-23T17:42:29.564Z,14.87
2019-02-23T17:44:58.203Z,13.07
2019-02-23T17:47:26.933Z,12.33
2019-02-23T17:49:55.538Z,13.80
2019-02-23T17:52:24.301Z,12.63
2019-02-23T17:54:54.514Z,12.00
2019-02-23T17:57:23.370Z,10.87
2019-02-23T17:59:54.329Z,11.03
2019-02-23T18:02:22.988Z,12.30
2019-02-23T18:04:52.089Z,14.83
2019-02-23T18:07:20.766Z,15.93
2019-02-23T18:09:49.551Z,12.10
2019-02-23T18:12:18.240Z,12.50
2019-02-23T18:14:47.028Z,15.73
2019-02-23T18:17:16.059Z,12.87
2019-02-23T18:19:44.735Z,12.67
2019-02-23T18:22:14.253Z,14.67
2019-02-23T18:24:43.138Z,13.13
2019-02-23T18:27:11.836Z,17.80
2019-02-23T18:29:40.464Z,14.00
2019-02-23T18:32:09.377Z,17.97
2019-02-23T18:34:38.492Z,12.90
2019-02-23T18:37:07.178Z,14.10
2019-02-23T18:39:36.060Z,14.33
2019-02-23T18:42:05.060Z,17.50
2019-02-23T18:44:33.804Z,14.27
2019-02-23T18:47:02.530Z,16.30
2019-02-23T18:49:31.168Z,16.50
2019-02-23T18:51:59.827Z,14.43
2019-02-23T18:54:28.889Z,14.37
2019-02-23T18:56:57.631Z,10.50
2019-02-23T18:59:26.230Z,14.50
2019-02-23T19:01:54.807Z,14.10
2019-02-23T19:04:23.405Z,14.10
2019-02-23T19:06:52.495Z,14.47
2019-02-23T19:09:21.157Z,18.57
2019-02-23T19:11:49.741Z,13.97
2019-02-23T19:14:18.422Z,13.50
2019-02-23T19:16:47.152Z,14.73
2019-02-23T19:19:15.836Z,14.43
2019-02-23T19:21:44.480Z,17.00
2019-02-23T19:24:13.152Z,16.10
2019-02-23T19:26:41.893Z,17.50
2019-02-23T19:29:10.449Z,14.33
2019-02-23T19:31:39.208Z,20.00
2019-02-23T19:34:08.229Z,20.00
2019-02-23T19:36:36.947Z,14.40
2019-02-23T19:39:05.971Z,16.00
2019-02-23T19:41:34.563Z,17.33
2019-02-23T19:44:04.172Z,15.83
2019-02-23T19:46:33.222Z,16.37
2019-02-23T19:49:01.987Z,16.97
2019-02-23T19:51:30.528Z,19.47
2019-02-23T19:53:59.158Z,15.03
2019-02-23T19:56:27.799Z,18.30
2019-02-23T19:58:56.481Z,21.20
2019-02-23T20:01:25.398Z,22.20
2019-02-23T20:03:54.055Z,18.07
2019-02-23T20:06:22.635Z,23.30
2019-02-23T20:08:51.286Z,17.90
2019-02-23T20:11:19.902Z,24.07
2019-02-23T20:13:48.817Z,17.97
2019-02-23T20:16:17.816Z,21.70
2019-02-23T20:18:46.466Z,20.17
2019-02-23T20:21:15.461Z,20.03
2019-02-23T20:23:44.394Z,27.90
2019-02-23T20:26:13.386Z,14.17
2019-02-23T20:28:41.950Z,16.17
2019-02-23T20:31:11.015Z,18.60
2019-02-23T20:33:39.601Z,16.30
2019-02-23T20:36:08.282Z,16.33
2019-02-23T20:38:36.908Z,16.10
2019-02-23T20:41:05.521Z,18.90
2019-02-23T20:43:34.107Z,16.93
2019-02-23T20:46:02.735Z,17.77
2019-02-23T20:48:31.490Z,18.43
2019-02-23T20:51:00.095Z,21.73
2019-02-23T20:53:28.695Z,20.70
2019-02-23T20:55:57.351Z,16.73
2019-02-23T20:58:27.413Z,18.73
2019-02-23T21:00:56.143Z,18.40
2019-02-23T21:03:25.146Z,19.90
2019-02-23T21:05:53.828Z,16.17
2019-02-23T21:08:22.510Z,16.67
2019-02-23T21:10:51.504Z,16.90
2019-02-23T21:13:20.334Z,17.10
2019-02-23T21:15:48.906Z,19.50
2019-02-23T21:18:18.479Z,21.80
2019-02-23T21:20:47.161Z,15.27
2019-02-23T21:23:15.770Z,17.03
2019-02-23T21:25:44.532Z,17.10
2019-02-23T21:28:13.214Z,16.37
2019-02-23T21:30:41.830Z,21.60
2019-02-23T21:33:10.477Z,20.33
2019-02-23T21:35:39.061Z,20.10
2019-02-23T21:38:07.663Z,16.70
2019-02-23T21:40:36.657Z,18.30
2019-02-23T21:43:05.423Z,17.03
2019-02-23T21:45:34.108Z,16.57
2019-02-23T21:48:02.750Z,19.10
2019-02-23T21:50:31.784Z,16.37
2019-02-23T21:53:00.473Z,19.80
2019-02-23T21:55:29.098Z,17.80
2019-02-23T21:57:57.731Z,15.37
2019-02-23T22:00:26.755Z,19.87
2019-02-23T22:02:55.322Z,18.63
2019-02-23T22:05:24.227Z,16.03
2019-02-23T22:07:52.897Z,19.63
2019-02-23T22:10:21.464Z,16.50
2019-02-23T22:12:50.212Z,15.60
2019-02-23T22:15:18.790Z,16.00
2019-02-23T22:17:47.383Z,13.70
2019-02-23T22:20:15.997Z,15.30
2019-02-23T22:22:44.586Z,19.27
2019-02-23T22:25:13.364Z,14.90
2019-02-23T22:27:42.100Z,15.20
2019-02-23T22:30:10.934Z,15.00
2019-02-23T22:32:39.521Z,13.27
2019-02-23T22:35:08.301Z,12.67
2019-02-23T22:37:36.992Z,17.93
2019-02-23T22:40:06.950Z,16.60
2019-02-23T22:42:35.606Z,15.17
2019-02-23T22:45:05.966Z,15.67
2019-02-23T22:47:34.554Z,15.43
2019-02-23T22:50:04.337Z,16.40
2019-02-23T22:52:32.988Z,18.23
2019-02-23T22:55:01.671Z,14.60
2019-02-23T22:57:30.263Z,15.17
2019-02-23T22:59:58.940Z,17.23
2019-02-23T23:02:28.033Z,18.07
2019-02-23T23:04:57.024Z,15.57
2019-02-23T23:07:25.632Z,14.60
2019-02-23T23:09:54.242Z,22.00
2019-02-23T23:12:22.831Z,18.20
2019-02-23T23:14:51.454Z,19.10
2019-02-23T23:17:20.388Z,15.97
2019-02-23T23:19:49.435Z,17.20
2019-02-23T23:22:18.529Z,17.73
2019-02-23T23:24:47.465Z,15.23
2019-02-23T23:27:16.458Z,15.10
2019-02-23T23:29:45.331Z,14.70
2019-02-23T23:32:14.338Z,20.53
2019-02-23T23:34:43.413Z,15.10
2019-02-23T23:37:12.001Z,18.17
2019-02-23T23:39:40.696Z,11.40
2019-02-23T23:42:09.204Z,13.83
2019-02-23T23:44:39.987Z,11.93
2019-02-23T23:47:08.756Z,13.47
2019-02-23T23:49:37.412Z,14.83
2019-02-23T23:52:06.269Z,15.70
2019-02-23T23:54:34.908Z,14.10
2019-02-23T23:57:03.585Z,13.70
2019-02-23T23:59:32.279Z,14.90
